Time;durP1;ratioP1;P1;durP2;ratioP2;P2;SDS_P1;SDS_P2;PMS_P1;PMS_P2;Temp;Humidity;BMP_temperature;BMP_pressure;BME280_temperature;BME280_humidity;BME280_pressure;Samples;Min_cycle;Max_cycle;Signal;HPM_P1;HPM_P2
2023/03/28 00:00:59;;;;;;;2.03;1.90;;;3.20;99.90;;;;;;4993682;28;20202;-49
2023/03/28 00:03:28;;;;;;;4.60;2.33;;;3.10;99.90;;;;;;4993262;28;20205;-49
2023/03/28 00:05:59;;;;;;;2.83;2.03;;;3.10;99.90;;;;;;4991253;28;20280;-49
2023/03/28 00:08:28;;;;;;;2.60;2.40;;;3.00;99.90;;;;;;4993350;28;20595;-49
2023/03/28 00:11:02;;;;;;;3.63;2.50;;;3.00;99.90;;;;;;4990681;28;20624;-50
2023/03/28 00:13:29;;;;;;;2.50;2.40;;;2.90;99.90;;;;;;4992828;28;20296;-46
2023/03/28 00:16:02;;;;;;;2.60;2.40;;;2.80;99.90;;;;;;4992099;28;20371;-47
2023/03/28 00:18:31;;;;;;;2.70;2.50;;;2.70;99.90;;;;;;4992567;28;20216;-47
2023/03/28 00:20:58;;;;;;;4.07;2.70;;;2.70;99.90;;;;;;4990811;28;20221;-46
2023/03/28 00:23:27;;;;;;;2.47;2.10;;;2.60;99.90;;;;;;4991504;28;20221;-46
2023/03/28 00:25:55;;;;;;;3.70;2.97;;;2.60;99.90;;;;;;4993036;28;20222;-46
2023/03/28 00:28:22;;;;;;;2.57;2.40;;;2.60;99.90;;;;;;4991954;28;20217;-46
2023/03/28 00:30:49;;;;;;;3.97;2.27;;;2.60;99.90;;;;;;4993777;28;20563;-49
2023/03/28 00:33:17;;;;;;;2.63;2.37;;;2.60;99.90;;;;;;4991953;28;20234;-47
2023/03/28 00:35:45;;;;;;;3.03;2.73;;;2.60;99.90;;;;;;4990307;28;20217;-47
2023/03/28 00:38:12;;;;;;;2.47;2.27;;;2.60;99.90;;;;;;4993031;28;20648;-47
2023/03/28 00:40:39;;;;;;;3.90;2.57;;;2.60;99.90;;;;;;4991508;28;20259;-45
2023/03/28 00:43:12;;;;;;;3.17;2.87;;;2.70;99.90;;;;;;4992763;28;20212;-48
2023/03/28 00:45:40;;;;;;;3.37;2.27;;;2.70;99.90;;;;;;4985047;28;20202;-46
2023/03/28 00:48:12;;;;;;;3.47;3.17;;;2.70;99.90;;;;;;4992203;28;20209;-47
2023/03/28 00:50:41;;;;;;;3.27;3.07;;;2.70;99.90;;;;;;4989067;28;20289;-47
2023/03/28 00:53:12;;;;;;;5.63;2.80;;;2.70;99.90;;;;;;4991269;28;20233;-47
2023/03/28 00:55:43;;;;;;;2.90;2.63;;;2.70;99.90;;;;;;4990027;28;20198;-47
2023/03/28 00:58:14;;;;;;;2.60;2.40;;;2.70;99.90;;;;;;4990313;28;20288;-47
2023/03/28 01:00:41;;;;;;;3.53;3.23;;;2.60;99.90;;;;;;4989130;28;20271;-52
2023/03/28 01:03:12;;;;;;;3.07;2.97;;;2.60;99.90;;;;;;4984504;28;20583;-47
2023/03/28 01:05:40;;;;;;;3.43;2.50;;;2.70;99.90;;;;;;4989406;28;20209;-47
2023/03/28 01:08:14;;;;;;;3.13;2.90;;;2.70;99.90;;;;;;4991787;28;20282;-46
2023/03/28 01:10:41;;;;;;;3.37;3.13;;;2.70;99.90;;;;;;4991484;28;20683;-47
2023/03/28 01:13:10;;;;;;;3.30;3.10;;;2.70;99.90;;;;;;4991591;28;20214;-46
2023/03/28 01:15:37;;;;;;;4.90;4.23;;;2.70;99.90;;;;;;4989878;28;20236;-47
2023/03/28 01:18:09;;;;;;;3.80;3.27;;;2.80;99.90;;;;;;4989054;28;20212;-47
2023/03/28 01:21:15;;;;;;;5.13;3.93;;;2.80;99.90;;;;;;4991485;28;20232;-47
2023/03/28 01:24:15;;;;;;;4.73;3.60;;;2.80;99.90;;;;;;4935494;28;20211;-47
2023/03/28 01:26:53;;;;;;;4.23;3.80;;;2.80;99.90;;;;;;4990829;28;20229;-46
2023/03/28 01:30:06;;;;;;;4.03;3.63;;;2.80;99.90;;;;;;4991105;28;20205;-46
2023/03/28 01:33:20;;;;;;;5.23;3.20;;;2.80;99.90;;;;;;4985281;28;20308;-47
2023/03/28 01:36:10;;;;;;;3.83;3.53;;;2.80;99.90;;;;;;4989947;28;20278;-48
2023/03/28 01:38:45;;;;;;;3.33;2.80;;;2.90;99.90;;;;;;4991002;28;20206;-47
2023/03/28 01:41:19;;;;;;;3.53;3.23;;;3.00;99.90;;;;;;4992608;28;20221;-46
2023/03/28 01:43:57;;;;;;;3.30;3.10;;;3.00;99.90;;;;;;4989941;28;20213;-46
2023/03/28 01:46:28;;;;;;;2.70;2.53;;;3.00;99.90;;;;;;4990907;28;20225;-47
2023/03/28 01:49:01;;;;;;;4.33;3.30;;;3.00;99.90;;;;;;4990844;28;20255;-46
2023/03/28 01:51:48;;;;;;;4.37;3.97;;;3.00;99.90;;;;;;4990948;28;20617;-47
2023/03/28 01:54:29;;;;;;;3.63;3.33;;;2.90;99.90;;;;;;4986199;28;20204;-46
2023/03/28 01:57:05;;;;;;;4.33;3.30;;;3.00;99.90;;;;;;4990067;28;20603;-46
2023/03/28 01:59:37;;;;;;;3.60;3.30;;;2.90;99.90;;;;;;4983184;28;20236;-46
2023/03/28 02:02:09;;;;;;;6.93;3.43;;;2.80;99.90;;;;;;4985999;28;20209;-46
2023/03/28 02:04:39;;;;;;;4.03;3.73;;;2.80;99.90;;;;;;4988714;28;20251;-46
2023/03/28 02:07:07;;;;;;;4.27;3.87;;;2.80;99.90;;;;;;4990445;28;20229;-47
2023/03/28 02:09:37;;;;;;;3.77;3.17;;;2.80;99.90;;;;;;4990245;28;20201;-47
2023/03/28 02:12:10;;;;;;;6.17;3.20;;;2.80;99.90;;;;;;4985094;28;20197;-47
2023/03/28 02:14:40;;;;;;;2.70;2.17;;;2.90;99.90;;;;;;4991441;28;20205;-47
2023/03/28 02:17:14;;;;;;;1.73;1.63;;;3.00;99.90;;;;;;4988633;28;20274;-47
2023/03/28 02:19:45;;;;;;;1.10;1.10;;;2.70;99.90;;;;;;4988717;28;20224;-46
2023/03/28 02:22:19;;;;;;;1.70;1.07;;;2.60;99.90;;;;;;4989458;28;20203;-47
2023/03/28 02:24:50;;;;;;;1.00;0.70;;;2.30;99.90;;;;;;4990232;28;20669;-46
2023/03/28 02:27:18;;;;;;;1.33;0.77;;;2.10;99.90;;;;;;4990550;28;20229;-46
2023/03/28 02:29:46;;;;;;;2.30;0.90;;;2.00;99.90;;;;;;4988648;28;20197;-45
2023/03/28 02:32:14;;;;;;;1.73;1.00;;;1.90;99.90;;;;;;4990043;28;20291;-47
2023/03/28 02:34:42;;;;;;;0.93;0.93;;;1.80;99.90;;;;;;4987925;28;20200;-48
2023/03/28 02:37:20;;;;;;;1.77;1.30;;;1.90;99.90;;;;;;4990243;28;20230;-46
2023/03/28 02:40:03;;;;;;;1.10;0.90;;;1.90;99.90;;;;;;4989349;28;20231;-46
2023/03/28 02:43:10;;;;;;;0.83;0.70;;;1.80;99.90;;;;;;4988927;28;20206;-47
2023/03/28 02:46:13;;;;;;;3.97;0.97;;;1.90;99.90;;;;;;4990728;28;20327;-46
2023/03/28 02:48:54;;;;;;;1.57;0.77;;;1.80;99.90;;;;;;4992301;28;20205;-47
2023/03/28 02:51:33;;;;;;;3.60;0.60;;;1.70;99.90;;;;;;4990604;28;20200;-48
2023/03/28 02:54:13;;;;;;;0.80;0.80;;;1.70;99.90;;;;;;4992124;28;20267;-46
2023/03/28 02:56:51;;;;;;;2.20;1.10;;;1.60;99.90;;;;;;5022272;23;20247;-46
2023/03/28 02:59:27;;;;;;;0.80;0.80;;;1.60;99.90;;;;;;5015141;28;20212;-47
2023/03/28 03:01:54;;;;;;;0.70;0.70;;;1.60;99.90;;;;;;5010457;28;20286;-46
2023/03/28 03:04:21;;;;;;;2.30;1.20;;;1.60;99.90;;;;;;5009672;28;20203;-50
2023/03/28 03:06:48;;;;;;;1.30;0.73;;;1.60;99.90;;;;;;5020446;28;20282;-48
2023/03/28 03:09:16;;;;;;;1.07;0.83;;;1.60;99.90;;;;;;5031819;28;20257;-47
2023/03/28 03:11:44;;;;;;;6.80;4.43;;;1.70;99.90;;;;;;5032261;28;20200;-47
2023/03/28 03:14:12;;;;;;;5.93;1.57;;;1.70;99.90;;;;;;5028428;28;20682;-47
2023/03/28 03:16:38;;;;;;;0.80;0.80;;;1.60;99.90;;;;;;5034167;28;20304;-48
2023/03/28 03:19:06;;;;;;;0.70;0.70;;;1.60;99.90;;;;;;5036587;28;20230;-47
2023/03/28 03:21:33;;;;;;;1.30;1.03;;;1.70;99.90;;;;;;5034350;28;20223;-46
2023/03/28 03:24:00;;;;;;;1.97;1.43;;;1.60;99.90;;;;;;5024647;28;20660;-48
2023/03/28 03:26:27;;;;;;;1.37;1.37;;;1.60;99.90;;;;;;5032159;28;20231;-50
2023/03/28 03:28:56;;;;;;;0.77;0.67;;;1.60;99.90;;;;;;5029576;28;20267;-48
2023/03/28 03:31:23;;;;;;;1.27;0.90;;;1.50;99.90;;;;;;5033183;28;20243;-47
2023/03/28 03:33:50;;;;;;;2.20;1.13;;;1.50;99.90;;;;;;5032640;28;20208;-48
2023/03/28 03:36:17;;;;;;;0.90;0.90;;;1.50;99.90;;;;;;5033853;28;20221;-47
2023/03/28 03:38:44;;;;;;;1.33;1.17;;;1.50;99.90;;;;;;5030115;28;20243;-49
2023/03/28 03:41:11;;;;;;;0.57;0.57;;;1.40;99.90;;;;;;5029908;28;20236;-46
2023/03/28 03:43:38;;;;;;;0.70;0.70;;;1.40;99.90;;;;;;5030370;28;20628;-50
2023/03/28 03:46:07;;;;;;;1.07;0.93;;;1.40;99.90;;;;;;5033856;28;20206;-49
2023/03/28 03:48:34;;;;;;;0.87;0.87;;;1.30;99.90;;;;;;5031324;28;20204;-48
2023/03/28 03:51:01;;;;;;;0.90;0.90;;;1.30;99.90;;;;;;5030048;28;20617;-46
2023/03/28 03:53:28;;;;;;;0.97;0.97;;;1.40;99.90;;;;;;5028901;28;20728;-49
2023/03/28 03:55:59;;;;;;;1.23;1.20;;;1.40;99.90;;;;;;5021765;28;20704;-49
2023/03/28 03:58:26;;;;;;;0.77;0.77;;;1.40;99.90;;;;;;5029291;28;20205;-49
2023/03/28 04:00:53;;;;;;;3.90;1.83;;;1.40;99.90;;;;;;5033293;28;20693;-48
2023/03/28 04:03:22;;;;;;;1.73;1.57;;;1.50;99.90;;;;;;5031307;28;20271;-48
2023/03/28 04:05:49;;;;;;;3.67;1.80;;;1.50;99.90;;;;;;5031716;28;20210;-48
2023/03/28 04:08:16;;;;;;;2.10;1.50;;;1.50;99.90;;;;;;5032777;28;20261;-50
2023/03/28 04:10:43;;;;;;;4.27;2.73;;;1.50;99.90;;;;;;5033246;28;20204;-48
2023/03/28 04:13:10;;;;;;;2.30;2.10;;;1.50;99.90;;;;;;5030925;28;20209;-49
2023/03/28 04:15:37;;;;;;;3.00;1.83;;;1.60;99.90;;;;;;5028724;28;20260;-48
2023/03/28 04:18:07;;;;;;;1.80;1.70;;;1.60;99.90;;;;;;5034005;28;20216;-49
2023/03/28 04:20:35;;;;;;;1.43;1.10;;;1.50;99.90;;;;;;5031193;28;20697;-49
2023/03/28 04:23:04;;;;;;;3.10;1.40;;;1.50;99.90;;;;;;5026828;28;20308;-48
2023/03/28 04:25:31;;;;;;;5.10;3.00;;;1.60;99.90;;;;;;5020301;28;20279;-47
2023/03/28 04:28:00;;;;;;;7.03;3.83;;;1.60;99.90;;;;;;5019246;28;20237;-48
2023/03/28 04:30:27;;;;;;;4.80;3.43;;;1.60;99.90;;;;;;5018171;28;20196;-48
2023/03/28 04:32:54;;;;;;;6.23;3.17;;;1.50;99.90;;;;;;5019880;28;20202;-47
2023/03/28 04:35:22;;;;;;;3.93;3.50;;;1.60;99.90;;;;;;5020326;28;20667;-47
2023/03/28 04:37:52;;;;;;;2.97;2.57;;;1.50;99.90;;;;;;5019692;28;20231;-47
2023/03/28 04:40:20;;;;;;;4.27;2.60;;;1.50;99.90;;;;;;5019342;28;20314;-47
2023/03/28 04:42:47;;;;;;;3.30;2.37;;;1.50;99.90;;;;;;5021065;28;20204;-46
2023/03/28 04:45:17;;;;;;;6.00;2.23;;;1.50;99.90;;;;;;5021588;28;20203;-46
2023/03/28 04:47:44;;;;;;;2.97;2.63;;;1.50;99.90;;;;;;5015747;28;20224;-46
2023/03/28 04:50:12;;;;;;;4.83;2.10;;;1.50;99.90;;;;;;5019384;28;20207;-47
2023/03/28 04:52:39;;;;;;;3.60;1.80;;;1.50;99.90;;;;;;5020347;28;20529;-46
2023/03/28 04:55:09;;;;;;;2.20;2.10;;;1.50;99.90;;;;;;5017876;28;20261;-46
2023/03/28 04:57:37;;;;;;;2.13;1.57;;;1.50;99.90;;;;;;5022892;28;20242;-48
2023/03/28 05:00:08;;;;;;;2.05;1.95;;;1.50;99.90;;;;;;5028368;28;20672;-48
2023/03/28 05:02:35;;;;;;;2.30;2.17;;;1.60;99.90;;;;;;5029810;28;20272;-48
2023/03/28 05:05:02;;;;;;;2.40;2.20;;;1.60;99.90;;;;;;5031461;28;20592;-47
2023/03/28 05:07:29;;;;;;;2.50;2.40;;;1.60;99.90;;;;;;5031046;28;20617;-47
2023/03/28 05:09:57;;;;;;;3.17;2.93;;;1.60;99.90;;;;;;5032451;28;20199;-47
2023/03/28 05:12:25;;;;;;;2.73;2.50;;;1.60;99.90;;;;;;5032903;28;20584;-48
2023/03/28 05:14:52;;;;;;;5.73;3.33;;;1.60;99.90;;;;;;5032822;28;20211;-48
2023/03/28 05:17:19;;;;;;;3.63;3.40;;;1.60;99.90;;;;;;5033026;28;20409;-49
2023/03/28 05:19:46;;;;;;;7.10;3.80;;;1.60;99.90;;;;;;5024913;28;20208;-48
2023/03/28 05:22:13;;;;;;;9.37;5.47;;;1.70;99.90;;;;;;5031401;28;20223;-49
2023/03/28 05:24:40;;;;;;;6.83;5.57;;;1.70;99.90;;;;;;5031072;28;20207;-46
2023/03/28 05:27:07;;;;;;;6.07;4.70;;;1.70;99.90;;;;;;5047124;28;20643;-47
2023/03/28 05:29:35;;;;;;;6.97;4.20;;;1.70;99.90;;;;;;5037933;28;20215;-45
2023/03/28 05:32:02;;;;;;;5.47;3.40;;;1.60;99.90;;;;;;5030940;28;20617;-47
2023/03/28 05:34:30;;;;;;;5.37;4.23;;;1.60;99.90;;;;;;5035526;28;20679;-47
2023/03/28 05:36:57;;;;;;;5.10;4.77;;;1.70;99.90;;;;;;5035586;28;20222;-46
2023/03/28 05:39:25;;;;;;;7.90;5.40;;;1.70;99.90;;;;;;5032940;28;20208;-47
2023/03/28 05:41:52;;;;;;;6.67;5.27;;;1.70;99.90;;;;;;5032535;28;20343;-49
2023/03/28 05:44:19;;;;;;;4.87;4.30;;;1.70;99.90;;;;;;5029555;28;20205;-48
2023/03/28 05:46:47;;;;;;;4.77;4.13;;;1.70;99.90;;;;;;5026270;28;20228;-48
2023/03/28 05:49:14;;;;;;;3.50;3.20;;;1.80;99.90;;;;;;5033300;28;20204;-47
2023/03/28 05:51:41;;;;;;;4.27;3.97;;;1.70;99.90;;;;;;5029635;28;20196;-46
2023/03/28 05:54:09;;;;;;;3.43;3.23;;;1.70;99.90;;;;;;5033979;28;20199;-48
2023/03/28 05:56:36;;;;;;;3.67;3.37;;;1.80;99.90;;;;;;5031929;28;20256;-47
2023/03/28 05:59:03;;;;;;;4.43;4.07;;;1.80;99.90;;;;;;5036029;28;20257;-49
2023/03/28 06:01:30;;;;;;;3.83;3.53;;;1.90;99.90;;;;;;5029754;28;20223;-47
2023/03/28 06:03:59;;;;;;;4.23;3.90;;;2.00;99.90;;;;;;5028767;28;20226;-46
2023/03/28 06:06:26;;;;;;;4.60;3.87;;;2.30;99.90;;;;;;5031100;28;20281;-48
2023/03/28 06:08:53;;;;;;;4.80;4.40;;;3.20;99.90;;;;;;5028440;28;20210;-47
2023/03/28 06:11:20;;;;;;;5.30;3.90;;;4.40;99.90;;;;;;5027875;28;20200;-47
2023/03/28 06:13:47;;;;;;;4.23;3.87;;;5.60;99.90;;;;;;5027913;28;20212;-47
2023/03/28 06:16:14;;;;;;;3.37;3.07;;;6.80;99.90;;;;;;5028006;28;20219;-48
2023/03/28 06:18:41;;;;;;;3.10;2.97;;;7.90;99.90;;;;;;5031699;28;20201;-47
2023/03/28 06:21:10;;;;;;;3.50;3.20;;;8.60;99.90;;;;;;5030131;28;20263;-48
2023/03/28 06:23:37;;;;;;;3.63;3.30;;;8.90;99.90;;;;;;5029924;28;20957;-48
2023/03/28 06:26:04;;;;;;;3.60;2.97;;;9.30;99.90;;;;;;5030160;28;20204;-48
2023/03/28 06:28:31;;;;;;;3.53;3.23;;;9.70;99.90;;;;;;5030335;28;20704;-47
2023/03/28 06:30:58;;;;;;;3.97;3.77;;;10.40;99.90;;;;;;5029357;28;20654;-47
2023/03/28 06:33:25;;;;;;;3.60;3.37;;;10.20;99.90;;;;;;5026453;28;20636;-49
2023/03/28 06:35:52;;;;;;;3.93;3.40;;;10.90;99.90;;;;;;5032395;28;20249;-49
2023/03/28 06:38:20;;;;;;;3.20;3.10;;;11.40;99.90;;;;;;5028237;28;20211;-49
2023/03/28 06:40:47;;;;;;;2.70;2.50;;;11.80;99.90;;;;;;5030288;28;20200;-49
2023/03/28 06:43:14;;;;;;;2.97;2.37;;;12.20;99.90;;;;;;5029813;28;20263;-49
2023/03/28 06:45:41;;;;;;;3.73;3.60;;;11.00;99.90;;;;;;5026348;28;20197;-47
2023/03/28 06:48:08;;;;;;;3.97;3.77;;;10.60;99.90;;;;;;5033115;28;20218;-48
2023/03/28 06:50:35;;;;;;;3.83;3.63;;;10.40;99.90;;;;;;5030529;28;20200;-48
2023/03/28 06:53:04;;;;;;;4.47;3.10;;;10.70;99.90;;;;;;5030166;28;20196;-48
2023/03/28 06:55:34;;;;;;;4.40;4.10;;;10.80;99.90;;;;;;5029318;28;20208;-48
2023/03/28 06:58:05;;;;;;;4.50;4.10;;;11.00;99.90;;;;;;5027255;28;20363;-47
2023/03/28 07:00:32;;;;;;;5.50;5.17;;;10.60;99.90;;;;;;5033267;28;20627;-47
2023/03/28 07:02:59;;;;;;;4.40;4.10;;;10.40;99.90;;;;;;5028921;28;20599;-47
2023/03/28 07:05:26;;;;;;;3.10;2.90;;;10.30;99.90;;;;;;5029394;28;20211;-48
2023/03/28 07:07:53;;;;;;;3.63;3.43;;;10.30;99.90;;;;;;5028444;28;20778;-48
2023/03/28 07:10:20;;;;;;;3.20;3.07;;;10.20;99.90;;;;;;5027136;28;20248;-47
2023/03/28 07:12:49;;;;;;;3.70;2.83;;;10.10;99.90;;;;;;5022676;28;20242;-48
2023/03/28 07:15:16;;;;;;;3.93;3.20;;;9.90;99.90;;;;;;5025974;28;20270;-47
2023/03/28 07:17:43;;;;;;;2.67;2.40;;;10.20;99.90;;;;;;5027454;28;20220;-49
2023/03/28 07:20:10;;;;;;;3.20;2.60;;;10.00;99.90;;;;;;5030245;28;20253;-47
2023/03/28 07:22:37;;;;;;;4.30;3.00;;;10.20;99.90;;;;;;5029560;28;20698;-49
2023/03/28 07:25:06;;;;;;;3.10;3.00;;;10.70;99.90;;;;;;5031292;28;20262;-47
2023/03/28 07:27:34;;;;;;;2.80;2.50;;;10.80;99.90;;;;;;5031160;28;20225;-48
2023/03/28 07:30:02;;;;;;;3.17;2.87;;;10.90;99.90;;;;;;5031259;28;20220;-47
2023/03/28 07:32:29;;;;;;;3.43;2.83;;;10.60;99.90;;;;;;5032148;28;20282;-47
2023/03/28 07:34:56;;;;;;;3.47;3.17;;;10.60;99.90;;;;;;5034410;28;20208;-47
2023/03/28 07:37:23;;;;;;;3.60;3.33;;;10.20;99.90;;;;;;5033858;28;20285;-48
2023/03/28 07:39:53;;;;;;;2.93;2.80;;;10.60;99.90;;;;;;5034349;28;20199;-48
2023/03/28 07:42:20;;;;;;;3.57;3.37;;;11.40;99.90;;;;;;5039729;28;20252;-47
2023/03/28 07:44:48;;;;;;;3.13;2.93;;;11.40;99.90;;;;;;5038393;28;20283;-47
2023/03/28 07:47:17;;;;;;;3.00;2.70;;;11.90;99.90;;;;;;5034247;28;20227;-47
2023/03/28 07:49:44;;;;;;;3.23;3.03;;;11.60;99.90;;;;;;5032579;28;20578;-48
2023/03/28 07:52:12;;;;;;;3.85;3.55;;;11.10;99.90;;;;;;5025178;28;20513;-48
2023/03/28 07:54:40;;;;;;;4.00;3.70;;;11.20;99.90;;;;;;5031927;28;20208;-48
2023/03/28 07:57:07;;;;;;;3.97;3.67;;;11.50;99.90;;;;;;5034082;28;20702;-47
2023/03/28 07:59:34;;;;;;;2.90;2.80;;;11.20;99.90;;;;;;5034581;28;20201;-49
2023/03/28 08:02:01;;;;;;;2.70;2.60;;;11.30;99.90;;;;;;5034362;28;20294;-48
2023/03/28 08:04:30;;;;;;;2.83;2.70;;;10.90;99.90;;;;;;5031736;28;20299;-48
2023/03/28 08:06:57;;;;;;;2.83;2.73;;;11.50;99.90;;;;;;5034148;28;20221;-48
2023/03/28 08:09:24;;;;;;;2.63;2.43;;;11.90;99.90;;;;;;5034240;28;20233;-48
2023/03/28 08:11:51;;;;;;;3.10;2.90;;;11.80;99.90;;;;;;5034603;28;20201;-48
2023/03/28 08:14:19;;;;;;;2.50;2.40;;;12.30;99.90;;;;;;5034333;28;20199;-47
2023/03/28 08:16:46;;;;;;;2.10;2.10;;;12.80;99.90;;;;;;5051865;28;20617;-46
2023/03/28 08:19:13;;;;;;;2.47;2.37;;;13.10;99.90;;;;;;5063031;28;20611;-48
2023/03/28 08:21:41;;;;;;;5.97;2.60;;;13.20;99.90;;;;;;5041972;28;20290;-47
2023/03/28 08:24:10;;;;;;;1.93;1.83;;;12.90;99.90;;;;;;5038467;28;20247;-47
2023/03/28 08:26:37;;;;;;;3.93;2.40;;;13.50;99.90;;;;;;5033657;28;20224;-48
2023/03/28 08:29:05;;;;;;;2.13;2.03;;;13.90;99.90;;;;;;5033917;28;20209;-49
2023/03/28 08:31:32;;;;;;;2.83;2.73;;;13.40;99.90;;;;;;5033829;28;20201;-48
2023/03/28 08:33:59;;;;;;;7.17;1.80;;;13.70;99.90;;;;;;5032225;28;20253;-48
2023/03/28 08:36:28;;;;;;;2.47;2.27;;;13.50;99.90;;;;;;5048308;28;20298;-48
2023/03/28 08:38:59;;;;;;;1.87;1.77;;;13.40;99.90;;;;;;5042413;28;20359;-49
2023/03/28 08:41:48;;;;;;;2.73;2.30;;;13.90;99.90;;;;;;5033577;28;20213;-48
2023/03/28 08:44:36;;;;;;;2.57;1.67;;;13.70;99.90;;;;;;5049752;28;20248;-49
2023/03/28 08:47:05;;;;;;;1.55;1.40;;;13.50;99.90;;;;;;5049245;28;20519;-48
2023/03/28 08:49:39;;;;;;;1.43;1.33;;;13.70;99.90;;;;;;5033455;28;20248;-48
2023/03/28 08:52:06;;;;;;;2.23;2.03;;;13.70;99.90;;;;;;5033033;28;20597;-46
2023/03/28 08:54:40;;;;;;;3.53;2.00;;;12.70;99.90;;;;;;5032695;28;20264;-48
2023/03/28 08:57:13;;;;;;;2.77;1.57;;;12.80;99.90;;;;;;5013681;28;20246;-48
2023/03/28 08:59:45;;;;;;;1.50;1.40;;;13.40;99.90;;;;;;5013670;28;20209;-48
2023/03/28 09:02:17;;;;;;;2.30;2.20;;;13.60;99.90;;;;;;5015317;28;20233;-48
2023/03/28 09:04:45;;;;;;;1.63;1.57;;;14.20;99.90;;;;;;5031771;28;20575;-46
2023/03/28 09:07:23;;;;;;;2.60;2.30;;;13.60;99.90;;;;;;5031505;28;20613;-47
2023/03/28 09:10:00;;;;;;;2.10;1.93;;;13.80;99.90;;;;;;5033201;28;20204;-48
2023/03/28 09:12:40;;;;;;;2.00;1.90;;;13.70;99.90;;;;;;5033215;28;20200;-47
2023/03/28 09:15:30;;;;;;;1.60;1.60;;;14.20;99.90;;;;;;5030275;28;20209;-48
2023/03/28 09:18:12;;;;;;;2.27;1.93;;;14.30;99.90;;;;;;5032808;28;20221;-47
2023/03/28 09:20:45;;;;;;;1.77;1.67;;;14.70;99.90;;;;;;5030743;28;20250;-47
2023/03/28 09:23:23;;;;;;;1.73;1.63;;;14.90;99.90;;;;;;5032520;28;20218;-48
2023/03/28 09:25:59;;;;;;;4.43;1.70;;;14.60;99.90;;;;;;5030881;28;20208;-47
2023/03/28 09:28:38;;;;;;;1.60;1.50;;;15.20;99.90;;;;;;5032964;28;20714;-48
2023/03/28 09:31:09;;;;;;;2.30;2.10;;;14.90;99.90;;;;;;5032903;28;20636;-48
2023/03/28 09:33:39;;;;;;;2.90;1.93;;;15.30;99.90;;;;;;5032052;28;20268;-49
2023/03/28 09:36:12;;;;;;;2.50;2.40;;;15.40;99.90;;;;;;5029761;28;20671;-49
2023/03/28 09:38:44;;;;;;;3.67;2.37;;;15.20;99.90;;;;;;5032166;28;20621;-46
2023/03/28 09:41:19;;;;;;;2.13;2.03;;;15.30;99.90;;;;;;5031163;28;20202;-48
2023/03/28 09:43:50;;;;;;;2.10;2.00;;;14.70;99.90;;;;;;5031774;28;20669;-48
2023/03/28 09:46:24;;;;;;;2.37;2.13;;;14.50;99.90;;;;;;5033994;28;20230;-49
2023/03/28 09:48:52;;;;;;;2.17;2.07;;;13.90;99.90;;;;;;5032322;28;20200;-47
2023/03/28 09:51:20;;;;;;;2.83;2.63;;;13.50;99.90;;;;;;5032208;28;20307;-48
2023/03/28 09:53:47;;;;;;;2.60;2.50;;;13.90;99.90;;;;;;5029946;28;20644;-49
2023/03/28 09:56:23;;;;;;;4.23;2.10;;;14.50;99.90;;;;;;5039264;28;20236;-48
2023/03/28 09:58:52;;;;;;;4.23;2.30;;;15.20;99.90;;;;;;5032137;28;20199;-49
2023/03/28 10:01:30;;;;;;;2.77;2.37;;;15.10;99.30;;;;;;5032429;28;20205;-47
2023/03/28 10:03:58;;;;;;;3.93;2.93;;;14.90;97.70;;;;;;5031261;28;20726;-48
2023/03/28 10:06:27;;;;;;;2.33;2.23;;;14.40;99.90;;;;;;5031973;28;20617;-47
2023/03/28 10:09:10;;;;;;;1.67;1.57;;;14.80;99.90;;;;;;5049256;28;20201;-48
2023/03/28 10:11:54;;;;;;;1.87;1.83;;;14.90;99.90;;;;;;5032792;28;20205;-48
2023/03/28 10:14:40;;;;;;;2.63;2.53;;;15.50;99.90;;;;;;5030597;28;20201;-48
2023/03/28 10:17:15;;;;;;;2.40;2.10;;;14.60;97.50;;;;;;5031903;28;20226;-48
2023/03/28 10:19:45;;;;;;;4.83;1.83;;;14.50;99.30;;;;;;5031700;28;20262;-48
2023/03/28 10:22:15;;;;;;;1.37;1.37;;;14.50;99.90;;;;;;5032137;28;20244;-48
2023/03/28 10:24:46;;;;;;;2.53;2.40;;;14.70;99.90;;;;;;5031378;28;20220;-49
2023/03/28 10:27:19;;;;;;;3.13;2.20;;;14.80;99.90;;;;;;5030534;28;20226;-48
2023/03/28 10:29:47;;;;;;;1.50;1.40;;;14.90;99.80;;;;;;5031801;28;20201;-48
2023/03/28 10:32:23;;;;;;;2.63;1.20;;;15.00;97.00;;;;;;5031514;28;20198;-48
2023/03/28 10:35:00;;;;;;;1.83;1.50;;;15.50;94.40;;;;;;5026869;28;20202;-48
2023/03/28 10:37:29;;;;;;;7.83;1.77;;;15.80;94.00;;;;;;5025383;28;20254;-48
2023/03/28 10:40:01;;;;;;;1.47;1.33;;;14.90;94.00;;;;;;5031349;28;20244;-47
2023/03/28 10:42:40;;;;;;;2.60;2.20;;;15.10;98.20;;;;;;5031565;28;20803;-48
2023/03/28 10:45:18;;;;;;;4.77;2.60;;;14.90;98.70;;;;;;5029303;28;20209;-48
2023/03/28 10:47:45;;;;;;;2.50;2.40;;;14.90;99.90;;;;;;5031129;28;20666;-49
2023/03/28 10:50:22;;;;;;;2.23;2.13;;;15.20;98.70;;;;;;5031704;28;20679;-46
2023/03/28 10:53:03;;;;;;;2.03;1.93;;;15.20;99.60;;;;;;5031771;28;20301;-48
2023/03/28 10:55:39;;;;;;;8.13;5.23;;;14.90;98.80;;;;;;5032329;28;20202;-49
2023/03/28 10:58:15;;;;;;;4.23;3.77;;;14.60;98.70;;;;;;5051185;28;20225;-48
2023/03/28 11:00:46;;;;;;;2.80;1.53;;;14.30;99.90;;;;;;5044953;28;20259;-48
2023/03/28 11:03:37;;;;;;;1.47;1.37;;;13.90;97.20;;;;;;5029798;28;20535;-48
2023/03/28 11:06:10;;;;;;;1.17;1.00;;;13.50;96.00;;;;;;5023754;28;20201;-47
2023/03/28 11:08:47;;;;;;;1.20;1.20;;;13.40;96.80;;;;;;5033615;28;20198;-48
2023/03/28 11:11:34;;;;;;;1.17;1.03;;;13.10;93.70;;;;;;5035332;28;20198;-47
2023/03/28 11:14:14;;;;;;;1.63;1.37;;;12.90;96.30;;;;;;5032815;28;20200;-47
2023/03/28 11:16:51;;;;;;;1.10;1.03;;;12.70;97.90;;;;;;5035186;28;20703;-47
2023/03/28 11:19:34;;;;;;;1.80;0.93;;;12.40;97.00;;;;;;5035180;28;20204;-49
2023/03/28 11:22:07;;;;;;;2.70;2.03;;;12.40;97.80;;;;;;5015493;28;20702;-48
2023/03/28 11:24:41;;;;;;;1.57;1.13;;;12.50;95.10;;;;;;5022806;28;20262;-47
2023/03/28 11:27:14;;;;;;;0.87;0.87;;;12.30;95.50;;;;;;5035235;28;20219;-48
2023/03/28 11:29:46;;;;;;;1.10;1.10;;;12.30;97.40;;;;;;5035072;28;20205;-48
2023/03/28 11:32:18;;;;;;;1.57;1.47;;;12.20;96.80;;;;;;5035059;28;20229;-47
2023/03/28 11:34:56;;;;;;;1.00;0.80;;;11.50;95.50;;;;;;5031963;28;20202;-48
2023/03/28 11:37:28;;;;;;;1.17;1.17;;;11.50;98.30;;;;;;5034784;28;20226;-49
2023/03/28 11:39:59;;;;;;;1.47;1.23;;;11.40;98.00;;;;;;5035045;28;20299;-49
2023/03/28 11:42:30;;;;;;;0.93;0.93;;;11.40;99.90;;;;;;5033002;28;20284;-48
2023/03/28 11:45:04;;;;;;;1.00;1.00;;;11.50;98.00;;;;;;5030929;28;20200;-48
2023/03/28 11:47:38;;;;;;;1.47;1.37;;;11.50;97.80;;;;;;5034315;28;20225;-49
2023/03/28 11:50:15;;;;;;;0.87;0.87;;;11.30;98.90;;;;;;5034868;28;20200;-48
2023/03/28 11:52:49;;;;;;;3.17;1.23;;;11.20;98.90;;;;;;5033085;28;20198;-47
2023/03/28 11:55:21;;;;;;;1.30;1.30;;;11.20;99.60;;;;;;5034180;28;20206;-46
2023/03/28 11:57:54;;;;;;;3.33;1.10;;;11.10;98.30;;;;;;5034598;28;20237;-48
2023/03/28 12:00:30;;;;;;;1.57;0.87;;;11.10;97.50;;;;;;5034451;28;20200;-47
2023/03/28 12:03:10;;;;;;;0.63;0.63;;;11.00;98.10;;;;;;5034319;28;20224;-48
2023/03/28 12:05:44;;;;;;;0.73;0.73;;;11.10;97.80;;;;;;5034298;28;20262;-48
2023/03/28 12:08:16;;;;;;;0.87;0.70;;;11.10;98.00;;;;;;5032329;28;20226;-48
2023/03/28 12:10:46;;;;;;;0.97;0.90;;;11.10;96.20;;;;;;5034244;28;20202;-47
2023/03/28 12:13:18;;;;;;;2.63;1.00;;;11.10;98.30;;;;;;5033651;28;20210;-47
2023/03/28 12:15:50;;;;;;;2.50;0.80;;;11.20;96.40;;;;;;5034152;28;20208;-48
2023/03/28 12:18:27;;;;;;;1.67;0.90;;;11.30;96.60;;;;;;5033753;28;20205;-48
2023/03/28 12:20:59;;;;;;;1.30;1.20;;;11.30;96.80;;;;;;5033522;28;20215;-48
2023/03/28 12:23:36;;;;;;;0.90;0.90;;;11.60;98.70;;;;;;5033439;28;20222;-49
2023/03/28 12:26:16;;;;;;;0.83;0.83;;;11.50;97.80;;;;;;5032042;28;20216;-48
2023/03/28 12:28:48;;;;;;;0.50;0.50;;;11.50;96.80;;;;;;5033859;28;20590;-49
2023/03/28 12:31:22;;;;;;;1.00;1.00;;;11.50;94.40;;;;;;5033780;28;20252;-48
2023/03/28 12:33:56;;;;;;;1.20;1.17;;;10.90;94.40;;;;;;5033339;28;20204;-48
2023/03/28 12:36:32;;;;;;;1.17;1.17;;;10.90;93.30;;;;;;5033686;28;20462;-49
2023/03/28 12:39:04;;;;;;;0.70;0.70;;;11.00;95.00;;;;;;5033790;28;20211;-49
2023/03/28 12:41:35;;;;;;;0.80;0.80;;;11.20;93.40;;;;;;5032907;28;20749;-48
2023/03/28 12:44:07;;;;;;;0.87;0.87;;;11.30;95.70;;;;;;5025480;28;20715;-48
2023/03/28 12:46:44;;;;;;;1.70;0.93;;;11.40;94.50;;;;;;5030088;28;20229;-48
2023/03/28 12:49:17;;;;;;;0.60;0.60;;;11.70;94.30;;;;;;5033584;28;20204;-48
2023/03/28 12:51:48;;;;;;;1.13;1.13;;;11.90;95.80;;;;;;5033481;28;20247;-48
2023/03/28 12:54:27;;;;;;;0.77;0.77;;;12.20;92.90;;;;;;5032560;28;20301;-47
2023/03/28 12:57:10;;;;;;;2.70;1.03;;;12.00;92.50;;;;;;5032737;28;20312;-47
2023/03/28 13:00:06;;;;;;;1.10;0.90;;;11.80;93.80;;;;;;5033031;28;20204;-47
2023/03/28 13:02:42;;;;;;;1.40;0.80;;;11.60;93.20;;;;;;5033334;28;20291;-48
2023/03/28 13:05:15;;;;;;;2.80;0.80;;;11.60;95.60;;;;;;5032062;28;20205;-49
2023/03/28 13:08:01;;;;;;;0.97;0.87;;;11.40;96.10;;;;;;5031944;28;20220;-54
2023/03/28 13:10:38;;;;;;;1.30;0.97;;;11.40;96.20;;;;;;5032883;28;20205;-48
2023/03/28 13:13:20;;;;;;;0.60;0.60;;;11.40;94.30;;;;;;5033251;28;20191;-47
2023/03/28 13:16:01;;;;;;;0.77;0.70;;;11.40;94.10;;;;;;5030893;28;20213;-48